Time;durP1;ratioP1;P1;durP2;ratioP2;P2;SDS_P1;SDS_P2;PMS_P1;PMS_P2;Temp;Humidity;BMP_temperature;BMP_pressure;BME280_temperature;BME280_humidity;BME280_pressure;Samples;Min_cycle;Max_cycle;Signal;HPM_P1;HPM_P2
2023/10/10 00:02:20;;;;;;;3.67;0.95;;;17.50;99.90;;;;;;7392595;19;20361;-81
2023/10/10 00:04:49;;;;;;;1.08;0.98;;;17.50;99.90;;;;;;7392650;19;20146;-81
2023/10/10 00:07:16;;;;;;;2.63;1.05;;;17.60;99.90;;;;;;7394730;19;20143;-82
2023/10/10 00:09:44;;;;;;;2.40;1.20;;;17.80;99.90;;;;;;7395455;19;20226;-82
2023/10/10 00:12:18;;;;;;;2.53;1.25;;;17.50;99.90;;;;;;7394343;19;20143;-82
2023/10/10 00:14:50;;;;;;;3.33;1.45;;;17.50;99.90;;;;;;7393595;19;20127;-81
2023/10/10 00:17:16;;;;;;;2.35;1.45;;;17.20;99.90;;;;;;7393464;19;20147;-83
2023/10/10 00:19:44;;;;;;;3.38;1.45;;;17.40;99.90;;;;;;7393707;19;20142;-82
2023/10/10 00:22:10;;;;;;;3.25;1.35;;;17.60;99.90;;;;;;7395458;19;20196;-83
2023/10/10 00:24:36;;;;;;;3.38;1.85;;;17.60;99.90;;;;;;7393042;19;20707;-82
2023/10/10 00:27:12;;;;;;;1.42;1.13;;;17.70;99.90;;;;;;7394527;19;20126;-82
2023/10/10 00:29:44;;;;;;;2.53;1.55;;;17.70;99.90;;;;;;7393617;19;20142;-82
2023/10/10 00:32:18;;;;;;;3.33;1.45;;;17.50;99.90;;;;;;7392022;19;20538;-81
2023/10/10 00:34:47;;;;;;;2.55;1.05;;;17.40;99.90;;;;;;7392787;19;20146;-80
2023/10/10 00:37:16;;;;;;;1.42;1.02;;;17.50;99.90;;;;;;7392759;19;20141;-81
2023/10/10 00:39:52;;;;;;;2.55;1.05;;;17.50;99.90;;;;;;7392314;19;20656;-82
2023/10/10 00:42:36;;;;;;;2.83;1.60;;;17.60;99.90;;;;;;7391454;19;20172;-82
2023/10/10 00:45:09;;;;;;;2.85;1.20;;;17.40;99.90;;;;;;7394045;19;20227;-84
2023/10/10 00:47:44;;;;;;;3.28;1.35;;;17.40;99.90;;;;;;7394690;19;20135;-83
2023/10/10 00:50:19;;;;;;;3.28;1.85;;;17.50;99.90;;;;;;7396088;19;20173;-82
2023/10/10 00:52:52;;;;;;;2.83;1.67;;;17.60;99.90;;;;;;7391991;19;20857;-82
2023/10/10 00:55:21;;;;;;;3.10;1.30;;;17.50;99.90;;;;;;7393230;19;20157;-81
2023/10/10 00:57:52;;;;;;;1.80;1.40;;;17.50;99.90;;;;;;7390726;19;20164;-82
2023/10/10 01:00:20;;;;;;;3.50;1.95;;;17.50;99.90;;;;;;7393222;19;20546;-82
2023/10/10 01:02:50;;;;;;;3.63;1.75;;;17.40;99.90;;;;;;7392551;19;20143;-82
2023/10/10 01:05:23;;;;;;;2.50;1.30;;;17.40;99.90;;;;;;7391601;19;20151;-82
2023/10/10 01:07:51;;;;;;;3.13;1.33;;;17.40;99.90;;;;;;7392825;19;20226;-81
2023/10/10 01:10:17;;;;;;;3.65;1.95;;;17.40;99.90;;;;;;7390873;19;20152;-81
2023/10/10 01:12:46;;;;;;;2.58;1.67;;;17.30;99.90;;;;;;7393516;19;20134;-83
2023/10/10 01:15:14;;;;;;;2.55;1.90;;;17.30;99.90;;;;;;7392724;19;20135;-82
2023/10/10 01:17:44;;;;;;;2.75;1.60;;;17.20;99.90;;;;;;7394731;19;20590;-82
2023/10/10 01:20:56;;;;;;;3.20;1.50;;;17.20;99.90;;;;;;7391092;19;20149;-81
2023/10/10 01:22:57;;;;;;;2.70;1.25;;;17.30;99.90;;;;;;7390642;19;20182;-82
2023/10/10 01:28:03;;;;;;;7.13;1.30;;;17.30;99.90;;;;;;7391406;19;20138;-82
2023/10/10 01:30:57;;;;;;;2.97;1.13;;;17.20;99.90;;;;;;7394078;19;20130;-82
2023/10/10 01:33:36;;;;;;;2.55;1.05;;;17.20;99.90;;;;;;7392261;19;20202;-82
2023/10/10 01:36:13;;;;;;;1.38;1.25;;;17.00;99.90;;;;;;7389035;19;20164;-82
2023/10/10 01:38:41;;;;;;;2.53;1.25;;;16.90;99.90;;;;;;7392057;19;20131;-82
2023/10/10 01:41:31;;;;;;;2.75;1.70;;;16.90;99.90;;;;;;7389350;19;20138;-82
2023/10/10 01:44:08;;;;;;;2.28;1.00;;;17.00;99.90;;;;;;7393542;19;20138;-83
2023/10/10 01:46:35;;;;;;;3.40;1.60;;;17.10;99.90;;;;;;7392310;19;20130;-81
2023/10/10 01:49:02;;;;;;;2.05;1.35;;;17.00;99.90;;;;;;7391913;19;20462;-83
2023/10/10 01:51:33;;;;;;;1.85;1.00;;;17.00;99.90;;;;;;7391007;19;20153;-82
2023/10/10 01:54:29;;;;;;;1.73;1.50;;;16.90;99.90;;;;;;7390922;19;20624;-82
2023/10/10 01:56:51;;;;;;;1.40;0.95;;;16.60;99.90;;;;;;7389987;19;20154;-82
2023/10/10 01:59:24;;;;;;;1.95;1.33;;;16.50;99.90;;;;;;7390312;19;20155;-81
2023/10/10 02:01:52;;;;;;;1.77;1.25;;;16.70;99.90;;;;;;7388286;19;20688;-80
2023/10/10 02:04:22;;;;;;;4.70;1.83;;;16.70;99.90;;;;;;7389910;19;20130;-82
2023/10/10 02:06:55;;;;;;;1.40;1.15;;;16.80;99.90;;;;;;7388248;19;20166;-82
2023/10/10 02:11:54;;;;;;;3.67;1.83;;;16.80;99.90;;;;;;7390193;19;20152;-82
2023/10/10 02:14:25;;;;;;;1.55;0.93;;;16.90;99.90;;;;;;7391927;19;20135;-83
2023/10/10 02:16:55;;;;;;;7.25;1.73;;;16.90;99.90;;;;;;7389885;19;20139;-82
2023/10/10 02:19:39;;;;;;;3.83;1.60;;;16.90;99.90;;;;;;7390433;19;20229;-82
2023/10/10 02:22:33;;;;;;;3.92;1.35;;;16.80;99.90;;;;;;7391659;19;20138;-81
2023/10/10 02:27:56;;;;;;;2.03;1.45;;;16.70;99.90;;;;;;7385287;19;20157;-82
2023/10/10 02:30:38;;;;;;;1.25;1.13;;;16.70;99.90;;;;;;7390989;19;20134;-82
2023/10/10 02:38:58;;;;;;;1.42;1.20;;;16.60;99.90;;;;;;7391285;19;20491;-82
2023/10/10 02:41:37;;;;;;;2.65;1.70;;;16.50;99.90;;;;;;7385036;19;20526;-81
2023/10/10 02:44:05;;;;;;;3.78;1.85;;;16.50;99.90;;;;;;7390039;19;20126;-81
2023/10/10 02:46:36;;;;;;;2.30;1.15;;;16.40;99.90;;;;;;7391605;19;20193;-83
2023/10/10 02:49:09;;;;;;;3.97;1.70;;;16.20;99.90;;;;;;7390555;19;20485;-82
2023/10/10 02:51:36;;;;;;;3.40;2.15;;;16.30;99.90;;;;;;7390770;19;20146;-82
2023/10/10 02:54:10;;;;;;;2.10;1.48;;;16.40;99.90;;;;;;7389495;19;20506;-82
2023/10/10 02:56:43;;;;;;;2.90;1.50;;;16.30;99.90;;;;;;7391692;19;20155;-82
2023/10/10 02:59:09;;;;;;;3.85;2.05;;;16.30;99.90;;;;;;7389603;19;20161;-81
2023/10/10 03:07:28;;;;;;;4.18;1.70;;;16.20;99.90;;;;;;7396557;19;20131;-82
2023/10/10 03:12:44;;;;;;;1.55;1.20;;;16.30;99.90;;;;;;7395967;19;20143;-83
2023/10/10 03:15:27;;;;;;;2.15;0.95;;;16.00;99.90;;;;;;7392795;19;20130;-82
2023/10/10 03:18:52;;;;;;;2.55;1.08;;;15.70;99.90;;;;;;7395912;19;20537;-82
2023/10/10 03:20:50;;;;;;;2.95;1.50;;;15.60;99.90;;;;;;7391098;19;20595;-82
2023/10/10 03:25:50;;;;;;;3.55;1.25;;;16.10;99.90;;;;;;7394955;19;21328;-83
2023/10/10 03:33:44;;;;;;;6.28;1.77;;;15.40;99.90;;;;;;7396353;19;20604;-82
2023/10/10 05:25:22;;;;;;;2.22;1.20;;;15.40;99.90;;;;;;7392060;19;20143;-83
2023/10/10 05:27:52;;;;;;;1.80;1.17;;;15.30;99.90;;;;;;7391285;19;20492;-83
2023/10/10 05:30:39;;;;;;;2.15;1.45;;;15.50;99.90;;;;;;7391868;19;20131;-82
2023/10/10 05:33:06;;;;;;;2.42;1.58;;;15.20;99.90;;;;;;7389664;19;20536;-84
2023/10/10 05:35:37;;;;;;;2.20;1.60;;;15.10;99.90;;;;;;7391973;19;20209;-84
2023/10/10 05:38:09;;;;;;;1.67;1.20;;;15.10;99.90;;;;;;7391914;19;20146;-81
2023/10/10 05:40:38;;;;;;;4.22;1.52;;;15.10;99.90;;;;;;7391319;19;20155;-83
2023/10/10 05:43:19;;;;;;;3.05;1.38;;;15.00;99.90;;;;;;7390420;19;20611;-84
2023/10/10 05:45:45;;;;;;;4.22;1.88;;;15.20;99.90;;;;;;7390152;19;20166;-82
2023/10/10 05:48:12;;;;;;;2.78;1.33;;;15.30;99.90;;;;;;7392216;19;20135;-84
2023/10/10 05:50:40;;;;;;;2.65;1.42;;;15.70;99.90;;;;;;7392650;19;20127;-86
2023/10/10 05:53:07;;;;;;;2.33;1.48;;;15.80;99.90;;;;;;7390943;19;20225;-82
2023/10/10 05:55:38;;;;;;;2.42;1.23;;;15.80;99.90;;;;;;7391513;19;20620;-84
2023/10/10 05:58:05;;;;;;;4.05;1.75;;;15.80;99.90;;;;;;7391588;19;20151;-84
2023/10/10 06:00:37;;;;;;;3.97;1.95;;;15.70;99.90;;;;;;7389335;19;20142;-83
2023/10/10 06:03:06;;;;;;;3.50;1.67;;;15.60;99.90;;;;;;7391679;19;20165;-83
2023/10/10 06:05:35;;;;;;;3.75;1.83;;;15.60;99.90;;;;;;7388350;19;20575;-81
2023/10/10 06:08:02;;;;;;;1.98;1.48;;;15.60;99.90;;;;;;7391993;19;20138;-84
2023/10/10 06:10:31;;;;;;;2.88;1.52;;;15.60;99.90;;;;;;7391328;19;20477;-83
2023/10/10 06:12:58;;;;;;;2.88;1.88;;;15.60;99.90;;;;;;7395879;19;20146;-83
2023/10/10 06:15:24;;;;;;;5.65;2.17;;;15.70;99.90;;;;;;7392988;19;20146;-83
2023/10/10 06:17:57;;;;;;;3.78;1.45;;;15.70;99.90;;;;;;7390641;19;20143;-81
2023/10/10 06:20:24;;;;;;;2.58;1.60;;;15.70;99.90;;;;;;7394852;19;20131;-83
2023/10/10 06:22:54;;;;;;;3.35;1.75;;;15.70;99.90;;;;;;7389470;19;20515;-82
2023/10/10 06:25:21;;;;;;;3.88;2.13;;;15.70;99.90;;;;;;7388968;19;20146;-82
2023/10/10 06:27:57;;;;;;;2.25;1.80;;;15.60;99.90;;;;;;7390391;19;20143;-83
2023/10/10 06:30:24;;;;;;;2.20;1.80;;;15.60;99.90;;;;;;7390441;19;20161;-81
2023/10/10 06:32:51;;;;;;;1.80;1.50;;;15.70;99.90;;;;;;7390143;19;20214;-83
2023/10/10 06:37:52;;;;;;;2.22;1.55;;;15.90;99.90;;;;;;7388711;19;20154;-83
2023/10/10 06:40:30;;;;;;;1.63;1.27;;;16.00;99.90;;;;;;7386654;19;20199;-82
2023/10/10 06:42:57;;;;;;;2.53;1.63;;;15.90;99.90;;;;;;7389390;19;20153;-82
2023/10/10 06:45:34;;;;;;;3.33;2.20;;;15.80;99.90;;;;;;7387934;19;20164;-81
2023/10/10 06:48:01;;;;;;;3.42;1.70;;;15.80;99.90;;;;;;7389489;19;20219;-83
2023/10/10 06:50:32;;;;;;;3.17;1.77;;;16.00;99.90;;;;;;7391404;19;20127;-82
2023/10/10 06:53:00;;;;;;;2.28;1.10;;;16.10;99.90;;;;;;7390064;19;20598;-81
2023/10/10 06:55:36;;;;;;;3.50;1.90;;;16.10;99.90;;;;;;7388374;19;20151;-80
2023/10/10 06:58:08;;;;;;;2.72;1.50;;;16.10;99.90;;;;;;7388239;19;20193;-81
2023/10/10 07:00:44;;;;;;;3.70;1.92;;;16.10;99.90;;;;;;7387312;19;20167;-81
2023/10/10 07:03:11;;;;;;;3.72;1.88;;;15.90;99.90;;;;;;7387817;19;20206;-80
2023/10/10 07:05:39;;;;;;;1.38;1.25;;;15.80;99.90;;;;;;7385184;19;20189;-81
2023/10/10 07:08:24;;;;;;;2.70;1.85;;;15.90;99.90;;;;;;7387552;19;20154;-81
2023/10/10 07:11:20;;;;;;;3.33;1.50;;;15.90;99.90;;;;;;7388553;19;20157;-81
2023/10/10 07:13:54;;;;;;;1.08;0.80;;;15.90;99.90;;;;;;7389648;19;20138;-81
2023/10/10 07:16:20;;;;;;;3.30;1.48;;;15.90;99.90;;;;;;7388330;19;20149;-82
2023/10/10 07:18:46;;;;;;;2.78;1.40;;;15.70;99.90;;;;;;7389142;19;20139;-81
2023/10/10 07:21:30;;;;;;;3.45;2.55;;;15.50;99.90;;;;;;7386424;19;20598;-81
2023/10/10 07:24:13;;;;;;;5.43;2.60;;;15.50;99.90;;;;;;7390635;19;20143;-80
2023/10/10 07:26:41;;;;;;;3.17;2.00;;;15.70;99.90;;;;;;7387985;19;20138;-81
2023/10/10 07:32:28;;;;;;;4.15;2.92;;;16.30;99.90;;;;;;7385642;19;20227;-80
2023/10/10 07:34:54;;;;;;;2.88;2.15;;;16.40;99.90;;;;;;7385718;19;20166;-80
2023/10/10 07:37:22;;;;;;;4.50;2.53;;;16.40;99.90;;;;;;7386205;19;20146;-80
2023/10/10 07:42:27;;;;;;;3.58;2.05;;;16.50;99.90;;;;;;7388462;19;20126;-82
2023/10/10 07:45:13;;;;;;;4.45;1.40;;;16.50;99.90;;;;;;7388846;19;20158;-82
2023/10/10 07:50:34;;;;;;;3.53;1.65;;;16.40;99.90;;;;;;7387169;19;20500;-80
2023/10/10 07:53:07;;;;;;;7.40;2.50;;;16.50;99.90;;;;;;7393690;19;20149;-81
2023/10/10 07:58:23;;;;;;;3.55;1.98;;;16.60;99.90;;;;;;7396641;19;20548;-80
2023/10/10 08:00:53;;;;;;;1.98;1.30;;;16.70;99.90;;;;;;7399761;19;20131;-79
2023/10/10 08:03:19;;;;;;;3.50;2.15;;;16.70;99.90;;;;;;7391616;19;20146;-79
2023/10/10 08:05:50;;;;;;;2.83;1.15;;;16.70;99.90;;;;;;7391778;19;20186;-82
2023/10/10 08:08:20;;;;;;;2.97;1.77;;;16.80;99.90;;;;;;7391151;19;20168;-81
2023/10/10 08:10:49;;;;;;;2.65;1.50;;;16.80;99.90;;;;;;7399402;19;20358;-83
2023/10/10 08:13:16;;;;;;;2.47;1.52;;;16.80;99.90;;;;;;7393646;19;20218;-85
2023/10/10 08:15:56;;;;;;;2.85;1.25;;;16.80;99.90;;;;;;7393529;19;20143;-86
2023/10/10 08:18:49;;;;;;;1.00;0.90;;;16.70;99.90;;;;;;7397949;19;20130;-82
2023/10/10 08:21:15;;;;;;;3.88;1.67;;;16.80;99.90;;;;;;7390754;19;20541;-83
2023/10/10 08:23:45;;;;;;;3.35;2.00;;;17.10;99.90;;;;;;7392291;19;20234;-84
2023/10/10 08:26:17;;;;;;;2.42;1.55;;;17.20;99.90;;;;;;7393804;19;20166;-82
2023/10/10 08:28:45;;;;;;;2.55;1.60;;;17.30;99.90;;;;;;7392403;19;20210;-83
2023/10/10 08:31:13;;;;;;;2.72;1.92;;;17.30;99.90;;;;;;7394867;19;20139;-83
2023/10/10 08:33:46;;;;;;;4.60;2.70;;;17.40;99.90;;;;;;7399000;19;20150;-82
2023/10/10 08:36:25;;;;;;;2.85;1.80;;;17.40;99.90;;;;;;7394209;19;20156;-83
2023/10/10 08:38:56;;;;;;;1.63;1.30;;;17.50;99.90;;;;;;7393970;19;20142;-80
2023/10/10 08:41:27;;;;;;;2.90;2.03;;;17.50;99.90;;;;;;7391927;19;20158;-79
2023/10/10 08:43:58;;;;;;;2.38;1.65;;;17.60;99.90;;;;;;7390064;19;20202;-79
2023/10/10 08:46:31;;;;;;;3.20;2.03;;;17.70;99.90;;;;;;7390834;19;20150;-79
2023/10/10 08:49:04;;;;;;;6.40;1.92;;;17.60;99.90;;;;;;7392120;19;20602;-79
2023/10/10 08:51:34;;;;;;;4.85;1.92;;;17.70;99.90;;;;;;7393460;19;20170;-84
2023/10/10 08:54:09;;;;;;;1.98;1.45;;;17.70;99.90;;;;;;7395951;19;20230;-81
2023/10/10 08:56:38;;;;;;;1.45;1.10;;;17.70;99.90;;;;;;7392027;19;20221;-80
2023/10/10 08:59:06;;;;;;;2.95;1.67;;;17.80;99.90;;;;;;7392751;19;20615;-80
2023/10/10 09:01:38;;;;;;;1.77;1.35;;;17.90;99.90;;;;;;7390242;19;20166;-81
2023/10/10 09:04:05;;;;;;;3.15;1.65;;;18.00;99.90;;;;;;7393713;19;20213;-80
2023/10/10 09:06:44;;;;;;;2.35;1.50;;;18.10;99.90;;;;;;7393094;19;20158;-81
2023/10/10 09:11:56;;;;;;;3.45;1.58;;;18.20;99.90;;;;;;7397048;19;20146;-81
2023/10/10 09:14:41;;;;;;;3.50;2.10;;;18.30;99.90;;;;;;7392513;19;20217;-81
2023/10/10 09:17:28;;;;;;;2.17;1.48;;;18.50;99.90;;;;;;7394717;19;20139;-81
2023/10/10 09:20:00;;;;;;;2.58;1.65;;;18.70;99.90;;;;;;7393188;19;20149;-82
2023/10/10 09:22:42;;;;;;;3.67;1.92;;;18.70;99.90;;;;;;7392983;19;20138;-81
2023/10/10 09:25:19;;;;;;;3.22;1.30;;;18.90;99.90;;;;;;7393025;19;20621;-82
2023/10/10 09:28:07;;;;;;;1.92;1.48;;;18.90;99.90;;;;;;7392766;19;20153;-81
2023/10/10 09:30:49;;;;;;;3.95;1.77;;;19.00;99.90;;;;;;7393208;19;20611;-81
2023/10/10 09:33:27;;;;;;;2.45;1.48;;;19.00;99.90;;;;;;7391866;19;20139;-79
2023/10/10 09:39:08;;;;;;;3.15;1.50;;;19.20;99.90;;;;;;7395343;19;20488;-82
2023/10/10 09:47:13;;;;;;;3.10;1.48;;;19.40;99.90;;;;;;7393240;19;20618;-84
2023/10/10 09:50:27;;;;;;;3.10;1.73;;;19.50;99.90;;;;;;7393475;19;20154;-78
2023/10/10 09:52:50;;;;;;;4.35;1.90;;;19.50;99.90;;;;;;7391194;19;20150;-79
2023/10/10 09:58:03;;;;;;;1.80;1.38;;;19.70;99.90;;;;;;7392257;19;20126;-82
2023/10/10 10:00:44;;;;;;;3.08;1.75;;;19.80;99.90;;;;;;7392737;19;20151;-81
2023/10/10 10:06:00;;;;;;;2.00;1.63;;;20.00;99.90;;;;;;7391412;19;20611;-81
2023/10/10 10:08:47;;;;;;;3.85;1.75;;;20.00;99.90;;;;;;7399352;19;20491;-81
2023/10/10 10:11:19;;;;;;;8.63;2.00;;;20.10;99.90;;;;;;7392563;19;20592;-80
2023/10/10 10:14:14;;;;;;;5.32;1.60;;;20.10;99.90;;;;;;7388842;19;20217;-81
2023/10/10 10:16:51;;;;;;;2.42;1.65;;;20.20;99.90;;;;;;7391944;19;20150;-86
2023/10/10 10:19:22;;;;;;;2.00;1.45;;;20.20;99.90;;;;;;7393434;19;20645;-85
2023/10/10 10:21:55;;;;;;;2.67;1.73;;;20.30;99.90;;;;;;7391894;19;20603;-88
2023/10/10 10:24:32;;;;;;;2.60;1.73;;;20.30;99.90;;;;;;7393997;19;20154;-88
2023/10/10 10:27:35;;;;;;;3.72;1.92;;;20.30;99.90;;;;;;7394012;19;20138;-85
2023/10/10 10:32:58;;;;;;;3.55;1.92;;;20.50;99.90;;;;;;7392808;19;20143;-90
2023/10/10 10:35:36;;;;;;;2.50;1.50;;;20.60;99.90;;;;;;7398652;19;20158;-92
2023/10/10 10:38:06;;;;;;;2.47;1.80;;;20.60;99.90;;;;;;7398577;19;20843;-87
2023/10/10 10:43:14;;;;;;;2.33;1.50;;;20.70;99.90;;;;;;7393580;19;20614;-90
2023/10/10 10:46:07;;;;;;;3.15;1.77;;;20.70;99.90;;;;;;7392455;19;20162;-90
2023/10/10 10:48:35;;;;;;;3.70;1.83;;;20.80;99.90;;;;;;7392806;19;20218;-85
2023/10/10 10:51:22;;;;;;;2.75;1.58;;;20.80;99.90;;;;;;7392258;19;20630;-90
2023/10/10 10:54:02;;;;;;;1.63;1.33;;;20.90;99.90;;;;;;7393950;19;20222;-93
2023/10/10 10:59:12;;;;;;;3.72;1.60;;;20.90;99.90;;;;;;7398927;19;20150;-89
2023/10/10 11:01:57;;;;;;;2.20;1.40;;;21.10;99.90;;;;;;7394034;19;20148;-88
2023/10/10 11:07:08;;;;;;;2.67;1.50;;;21.30;99.90;;;;;;7393825;19;20178;-81
2023/10/10 11:09:43;;;;;;;2.08;1.50;;;21.30;99.90;;;;;;7389299;19;20599;-80
2023/10/10 11:12:09;;;;;;;1.52;1.20;;;21.40;99.90;;;;;;7386833;19;20158;-78
2023/10/10 11:14:44;;;;;;;3.28;1.85;;;21.50;99.90;;;;;;7393435;19;20623;-82
2023/10/10 11:17:17;;;;;;;2.60;1.35;;;21.50;99.90;;;;;;7386573;19;20138;-80
2023/10/10 11:19:46;;;;;;;2.13;1.10;;;21.60;99.90;;;;;;7387991;19;20134;-81
2023/10/10 11:22:38;;;;;;;2.55;1.50;;;21.70;99.90;;;;;;7384845;19;20163;-76
2023/10/10 11:25:04;;;;;;;3.70;1.58;;;21.80;99.90;;;;;;7388845;19;20157;-77
2023/10/10 11:27:33;;;;;;;3.72;1.92;;;21.80;99.90;;;;;;7391360;19;20139;-73
2023/10/10 11:30:08;;;;;;;3.17;1.52;;;21.90;99.90;;;;;;7392671;19;20138;-80
2023/10/10 11:32:45;;;;;;;1.63;1.25;;;21.80;99.90;;;;;;7393167;19;20158;-77
2023/10/10 11:37:48;;;;;;;3.63;1.73;;;21.90;99.90;;;;;;7395973;19;20638;-81
2023/10/10 11:43:04;;;;;;;2.85;1.67;;;22.00;99.90;;;;;;7395192;19;20142;-81
2023/10/10 11:45:40;;;;;;;2.40;1.58;;;22.00;99.90;;;;;;7395877;19;20214;-81
2023/10/10 11:48:12;;;;;;;3.17;1.90;;;22.10;99.90;;;;;;7396769;19;20134;-82
2023/10/10 11:50:50;;;;;;;2.40;1.58;;;22.20;99.90;;;;;;7396377;19;20167;-83
2023/10/10 11:53:23;;;;;;;1.90;1.17;;;22.30;99.90;;;;;;7392532;19;20152;-80
2023/10/10 11:55:52;;;;;;;4.38;1.83;;;22.30;99.90;;;;;;7392563;19;20543;-80
2023/10/10 11:58:18;;;;;;;2.55;1.25;;;22.30;99.90;;;;;;7392659;19;20162;-80
2023/10/10 12:01:05;;;;;;;3.20;1.40;;;22.30;99.90;;;;;;7393862;19;20214;-83
2023/10/10 12:08:48;;;;;;;2.28;1.50;;;22.50;99.90;;;;;;7399249;19;20145;-83
2023/10/10 12:11:21;;;;;;;3.65;1.85;;;22.40;99.90;;;;;;7395995;19;20146;-82
2023/10/10 12:13:51;;;;;;;3.65;2.10;;;22.40;99.90;;;;;;7397316;19;20624;-82
2023/10/10 12:16:27;;;;;;;3.35;1.88;;;22.40;99.90;;;;;;7393556;19;20130;-82
2023/10/10 12:18:53;;;;;;;2.38;1.50;;;22.30;99.90;;;;;;7394618;19;20130;-83
2023/10/10 12:21:23;;;;;;;1.90;1.38;;;22.50;99.90;;;;;;7391774;19;20138;-83
2023/10/10 12:23:56;;;;;;;2.05;1.55;;;22.60;99.90;;;;;;7394698;19;20145;-83
2023/10/10 12:26:23;;;;;;;4.47;2.08;;;22.70;99.90;;;;;;7393640;19;20193;-83
2023/10/10 12:28:52;;;;;;;2.00;1.40;;;22.70;99.90;;;;;;7394748;19;20138;-83
2023/10/10 12:31:21;;;;;;;3.38;1.60;;;22.70;99.90;;;;;;7394746;19;20131;-83
2023/10/10 12:33:53;;;;;;;2.33;1.23;;;22.70;99.90;;;;;;7395203;19;20134;-82
2023/10/10 12:36:23;;;;;;;3.08;1.77;;;22.60;99.90;;;;;;7392361;19;20126;-84
2023/10/10 12:38:48;;;;;;;2.33;1.45;;;22.50;99.90;;;;;;7395408;19;20135;-82
2023/10/10 12:41:20;;;;;;;4.93;2.45;;;22.50;99.90;;;;;;7394240;19;20153;-82
2023/10/10 12:43:50;;;;;;;3.72;2.20;;;22.50;99.90;;;;;;7394423;19;20138;-82
2023/10/10 12:46:17;;;;;;;4.20;1.77;;;22.60;99.90;;;;;;7395259;19;20142;-83
2023/10/10 12:48:43;;;;;;;2.15;1.45;;;22.70;99.90;;;;;;7394710;19;20295;-85
2023/10/10 12:51:09;;;;;;;2.92;1.63;;;22.80;99.90;;;;;;7395606;19;20142;-82
2023/10/10 12:53:39;;;;;;;2.25;1.40;;;22.80;99.90;;;;;;7394573;19;20211;-82
2023/10/10 12:56:10;;;;;;;3.15;1.40;;;22.70;99.90;;;;;;7394664;19;20146;-82
2023/10/10 12:58:42;;;;;;;3.60;1.25;;;22.70;99.90;;;;;;7394267;19;20134;-83
2023/10/10 13:01:12;;;;;;;2.85;1.35;;;22.80;99.90;;;;;;7392618;19;20138;-83
2023/10/10 13:03:38;;;;;;;4.80;1.77;;;22.80;99.90;;;;;;7393320;19;20587;-83
2023/10/10 13:06:06;;;;;;;3.33;1.60;;;22.70;99.90;;;;;;7392038;19;20146;-82
2023/10/10 13:08:46;;;;;;;3.25;1.50;;;22.80;99.90;;;;;;7390915;19;20616;-83
2023/10/10 13:11:17;;;;;;;1.40;1.05;;;22.90;99.90;;;;;;7395097;19;20268;-84
2023/10/10 13:13:56;;;;;;;4.32;1.77;;;22.90;99.90;;;;;;7393958;19;20151;-83
2023/10/10 13:16:24;;;;;;;3.78;1.90;;;23.00;99.90;;;;;;7391756;19;20142;-82
2023/10/10 13:18:51;;;;;;;2.95;1.50;;;23.00;99.90;;;;;;7393479;19;20142;-83
2023/10/10 13:21:20;;;;;;;2.67;1.45;;;23.00;99.90;;;;;;7392250;19;20142;-82
2023/10/10 13:23:47;;;;;;;2.47;1.75;;;23.00;99.90;;;;;;7393099;19;20607;-84
2023/10/10 13:26:13;;;;;;;3.45;1.38;;;23.10;99.90;;;;;;7393332;19;20133;-83
2023/10/10 13:28:44;;;;;;;2.47;1.50;;;23.10;99.90;;;;;;7392610;19;20131;-82
2023/10/10 13:31:17;;;;;;;5.72;2.10;;;23.00;99.90;;;;;;7394565;19;20155;-84
2023/10/10 13:33:44;;;;;;;3.42;1.92;;;23.10;99.90;;;;;;7392097;19;20133;-83
2023/10/10 13:36:17;;;;;;;2.85;1.23;;;22.90;99.90;;;;;;7393093;19;20134;-81
2023/10/10 13:38:48;;;;;;;3.70;1.13;;;22.90;99.90;;;;;;7392039;19;20165;-84
2023/10/10 13:41:19;;;;;;;4.03;1.80;;;22.80;99.90;;;;;;7391126;19;20688;-82
2023/10/10 13:43:52;;;;;;;2.63;1.52;;;22.80;99.90;;;;;;7390428;19;20161;-83
2023/10/10 13:46:20;;;;;;;3.28;1.85;;;22.90;99.90;;;;;;7392348;19;20130;-78
2023/10/10 13:48:47;;;;;;;3.25;1.73;;;22.80;99.90;;;;;;7387561;19;20150;-81
2023/10/10 13:51:15;;;;;;;2.85;1.38;;;22.80;99.90;;;;;;7392437;19;20122;-81
2023/10/10 13:53:43;;;;;;;2.83;1.92;;;22.70;99.90;;;;;;7389793;19;20155;-80
2023/10/10 13:56:10;;;;;;;3.13;1.60;;;22.60;99.90;;;;;;7391138;19;20130;-81
2023/10/10 13:58:37;;;;;;;2.72;1.83;;;22.60;99.90;;;;;;7391355;19;20489;-83
2023/10/10 14:03:45;;;;;;;2.72;1.77;;;22.60;99.90;;;;;;7389168;19;20546;-81
2023/10/10 14:06:19;;;;;;;2.00;1.30;;;22.60;99.90;;;;;;7387676;19;20181;-77
2023/10/10 14:08:49;;;;;;;2.70;1.38;;;22.70;99.90;;;;;;7387827;19;20158;-80
2023/10/10 14:11:21;;;;;;;3.50;1.75;;;22.60;99.90;;;;;;7388992;19;20172;-77
2023/10/10 14:13:51;;;;;;;1.92;1.30;;;22.60;99.90;;;;;;7388014;19;20147;-76
2023/10/10 14:16:18;;;;;;;2.50;1.58;;;22.60;99.90;;;;;;7388073;19;20434;-78
2023/10/10 14:18:49;;;;;;;2.88;1.30;;;22.60;99.90;;;;;;7389650;19;20145;-78
2023/10/10 14:21:16;;;;;;;3.45;1.60;;;22.60;99.90;;;;;;7388550;19;20159;-77
2023/10/10 14:23:45;;;;;;;2.58;1.52;;;22.60;99.90;;;;;;7389398;19;20150;-79
2023/10/10 14:26:18;;;;;;;4.57;1.98;;;22.50;99.90;;;;;;7388243;19;20890;-79
2023/10/10 14:28:51;;;;;;;3.72;2.05;;;22.40;99.90;;;;;;7387672;19;20162;-78
2023/10/10 14:31:21;;;;;;;3.13;2.00;;;22.50;99.90;;;;;;7391222;19;20131;-79
2023/10/10 14:33:48;;;;;;;3.95;1.95;;;22.70;99.90;;;;;;7390665;19;20131;-84
2023/10/10 14:36:16;;;;;;;3.28;2.25;;;22.70;99.90;;;;;;7391318;19;20539;-84
2023/10/10 14:38:46;;;;;;;3.58;1.80;;;22.60;99.90;;;;;;7390141;19;20134;-82
2023/10/10 14:41:17;;;;;;;3.33;2.05;;;22.60;99.90;;;;;;7389660;19;20135;-81
2023/10/10 14:43:47;;;;;;;3.17;1.70;;;22.60;99.90;;;;;;7389323;19;20139;-82
2023/10/10 14:46:22;;;;;;;2.05;1.65;;;22.60;99.90;;;;;;7390912;19;20161;-85
2023/10/10 14:51:37;;;;;;;4.38;1.60;;;22.50;99.90;;;;;;7392125;19;20134;-84
2023/10/10 14:54:11;;;;;;;4.15;1.50;;;22.70;99.90;;;;;;7389083;19;20173;-86
2023/10/10 14:56:50;;;;;;;2.50;1.52;;;22.70;99.90;;;;;;7387914;19;20147;-83
2023/10/10 14:59:24;;;;;;;3.60;1.67;;;22.80;99.90;;;;;;7390807;19;20234;-85
2023/10/10 15:01:59;;;;;;;3.05;1.60;;;22.80;99.90;;;;;;7394280;19;20149;-85
2023/10/10 15:04:28;;;;;;;1.65;1.05;;;22.60;99.90;;;;;;7395942;19;20605;-87
2023/10/10 15:06:55;;;;;;;2.95;1.77;;;22.50;99.90;;;;;;7396289;19;20154;-87
2023/10/10 15:09:24;;;;;;;2.65;1.60;;;22.40;99.90;;;;;;7399073;19;20150;-87
2023/10/10 15:11:58;;;;;;;3.40;2.00;;;22.30;99.90;;;;;;7398511;19;20611;-82
2023/10/10 15:14:24;;;;;;;3.00;2.13;;;22.30;99.90;;;;;;7398140;19;20154;-86
2023/10/10 15:16:51;;;;;;;3.30;2.03;;;22.30;99.90;;;;;;7396676;19;20162;-90
2023/10/10 15:19:17;;;;;;;3.03;1.83;;;22.40;99.90;;;;;;7397695;19;20462;-88
2023/10/10 15:21:48;;;;;;;2.92;1.70;;;22.30;99.90;;;;;;7394879;19;20184;-87
2023/10/10 15:24:15;;;;;;;4.30;2.10;;;22.20;99.90;;;;;;7397909;19;20146;-87
2023/10/10 15:26:59;;;;;;;2.22;1.48;;;22.20;99.90;;;;;;7396894;19;20510;-86
2023/10/10 15:29:26;;;;;;;3.00;1.63;;;22.10;99.90;;;;;;7396505;19;20157;-88
2023/10/10 15:31:52;;;;;;;2.58;1.58;;;22.00;99.90;;;;;;7395864;19;20135;-87
2023/10/10 15:34:18;;;;;;;2.83;1.77;;;22.00;99.90;;;;;;7397764;19;20157;-86
2023/10/10 15:36:45;;;;;;;2.67;1.73;;;21.90;99.90;;;;;;7399376;19;20158;-87
2023/10/10 15:39:12;;;;;;;2.00;1.42;;;21.90;99.90;;;;;;7398608;19;20586;-87
2023/10/10 15:41:40;;;;;;;2.40;1.48;;;21.90;99.90;;;;;;7395337;19;20135;-89
2023/10/10 15:44:08;;;;;;;2.28;1.63;;;21.90;99.90;;;;;;7396606;19;20133;-89
2023/10/10 15:46:36;;;;;;;3.15;1.40;;;21.80;99.90;;;;;;7396622;19;20506;-87
2023/10/10 15:49:08;;;;;;;2.22;1.73;;;21.80;99.90;;;;;;7396119;19;20481;-86
2023/10/10 15:51:37;;;;;;;4.32;2.63;;;21.80;99.90;;;;;;7394015;19;20135;-86
2023/10/10 15:54:05;;;;;;;3.72;2.28;;;21.70;99.90;;;;;;7394632;19;20138;-84
2023/10/10 15:56:31;;;;;;;2.58;1.58;;;21.80;99.90;;;;;;7394801;19;20310;-85
2023/10/10 15:58:57;;;;;;;2.80;1.90;;;21.80;99.90;;;;;;7396589;19;20560;-88
2023/10/10 16:01:28;;;;;;;3.13;2.00;;;21.70;99.90;;;;;;7393163;19;20153;-85
2023/10/10 16:04:00;;;;;;;1.83;1.40;;;21.60;99.90;;;;;;7395755;19;20138;-86
2023/10/10 16:06:28;;;;;;;2.83;1.38;;;21.60;99.90;;;;;;7392947;19;20262;-85
2023/10/10 16:08:56;;;;;;;2.85;1.70;;;21.50;99.90;;;;;;7394241;19;20238;-82
2023/10/10 16:11:34;;;;;;;3.85;1.70;;;21.50;99.90;;;;;;7397048;19;20753;-83
2023/10/10 16:14:11;;;;;;;2.97;1.88;;;21.40;99.90;;;;;;7393890;19;20509;-82
2023/10/10 16:16:43;;;;;;;2.53;1.48;;;21.30;99.90;;;;;;7392880;19;20141;-86
2023/10/10 16:19:13;;;;;;;3.78;2.08;;;21.20;99.90;;;;;;7395175;19;20138;-84
2023/10/10 16:21:42;;;;;;;4.18;1.50;;;21.20;99.90;;;;;;7393724;19;20177;-80
2023/10/10 16:24:14;;;;;;;4.82;2.15;;;21.20;99.90;;;;;;7394420;19;20146;-82
2023/10/10 16:26:45;;;;;;;2.00;1.27;;;21.10;99.90;;;;;;7394584;19;20559;-81
2023/10/10 16:29:11;;;;;;;3.53;1.90;;;21.00;99.90;;;;;;7393935;19;20146;-82
2023/10/10 16:31:43;;;;;;;3.88;2.00;;;21.00;99.90;;;;;;7394889;19;20170;-84